Time;durP1;ratioP1;P1;durP2;ratioP2;P2;SDS_P1;SDS_P2;PMS_P1;PMS_P2;Temp;Humidity;BMP_temperature;BMP_pressure;BME280_temperature;BME280_humidity;BME280_pressure;Samples;Min_cycle;Max_cycle;Signal;HPM_P1;HPM_P2
2023/05/16 00:01:01;;;;;;;7.28;3.40;;;9.40;99.90;;;;;;5093735;28;20044;-62
2023/05/16 00:03:29;;;;;;;8.25;3.72;;;9.40;99.90;;;;;;5100903;28;20122;-62
2023/05/16 00:05:56;;;;;;;8.18;3.78;;;9.40;99.90;;;;;;5113555;28;20355;-62
2023/05/16 00:08:23;;;;;;;8.13;3.97;;;9.30;99.90;;;;;;5113323;28;20044;-63
2023/05/16 00:10:50;;;;;;;9.27;3.60;;;9.30;99.90;;;;;;5113083;28;20039;-63
2023/05/16 00:13:21;;;;;;;9.35;4.10;;;9.30;99.90;;;;;;5104214;28;20060;-63
2023/05/16 00:15:48;;;;;;;8.98;3.97;;;9.30;99.90;;;;;;5093794;28;20032;-62
2023/05/16 00:18:15;;;;;;;11.35;4.50;;;9.30;99.90;;;;;;5093974;28;20040;-63
2023/05/16 00:20:42;;;;;;;8.77;3.83;;;9.30;99.90;;;;;;5093596;28;20136;-62
2023/05/16 00:23:09;;;;;;;11.73;4.05;;;9.40;99.90;;;;;;5093431;28;20044;-62
2023/05/16 00:25:36;;;;;;;9.32;4.18;;;9.50;99.90;;;;;;5075650;28;20455;-62
2023/05/16 00:28:03;;;;;;;8.07;4.20;;;9.50;99.90;;;;;;5093781;28;20044;-61
2023/05/16 00:30:29;;;;;;;8.23;3.97;;;9.50;99.90;;;;;;5075573;28;20044;-61
2023/05/16 00:32:56;;;;;;;8.98;4.03;;;9.50;99.90;;;;;;5093655;28;20130;-62
2023/05/16 00:35:23;;;;;;;8.52;4.35;;;9.50;99.90;;;;;;5075419;28;20047;-61
2023/05/16 00:37:49;;;;;;;8.73;4.43;;;9.50;99.90;;;;;;5093771;28;20444;-62
2023/05/16 00:40:16;;;;;;;7.85;4.40;;;9.40;99.90;;;;;;5093427;28;20105;-62
2023/05/16 00:42:43;;;;;;;10.02;4.15;;;9.30;99.90;;;;;;5075294;28;20064;-61
2023/05/16 00:45:10;;;;;;;10.98;4.35;;;9.40;99.90;;;;;;5077282;28;20465;-62
2023/05/16 00:47:37;;;;;;;8.48;3.92;;;9.40;99.90;;;;;;5097362;28;20495;-61
2023/05/16 00:50:04;;;;;;;9.98;4.10;;;9.40;99.90;;;;;;5078656;28;20487;-62
2023/05/16 00:52:32;;;;;;;11.68;4.13;;;9.40;99.90;;;;;;5097148;28;20040;-62
2023/05/16 00:55:00;;;;;;;8.55;4.03;;;9.50;99.90;;;;;;5097515;28;20032;-61
2023/05/16 00:57:26;;;;;;;10.48;4.22;;;9.50;99.90;;;;;;5097166;28;20032;-61
2023/05/16 00:59:53;;;;;;;8.43;4.43;;;9.60;99.90;;;;;;5095994;28;20040;-61
2023/05/16 01:02:20;;;;;;;10.63;3.88;;;9.60;99.90;;;;;;5078756;28;20525;-61
2023/05/16 01:04:47;;;;;;;9.88;4.00;;;9.60;99.90;;;;;;5090469;28;20143;-61
2023/05/16 01:07:14;;;;;;;8.80;3.92;;;9.60;99.90;;;;;;5090365;28;20044;-62
2023/05/16 01:09:40;;;;;;;11.20;5.07;;;9.60;99.90;;;;;;5090233;28;20036;-61
2023/05/16 01:12:07;;;;;;;12.75;4.78;;;9.60;99.90;;;;;;5090119;28;20097;-62
2023/05/16 01:14:34;;;;;;;8.85;4.00;;;9.70;99.90;;;;;;5099566;28;20047;-62
2023/05/16 01:17:00;;;;;;;9.57;3.95;;;9.70;99.90;;;;;;5096733;28;20036;-61
2023/05/16 01:19:27;;;;;;;9.88;3.70;;;9.70;99.90;;;;;;5096504;28;20097;-62
2023/05/16 01:21:56;;;;;;;9.50;4.05;;;9.70;99.90;;;;;;5097009;28;20043;-62
2023/05/16 01:24:23;;;;;;;8.77;3.42;;;9.70;99.90;;;;;;5062340;28;20040;-62
2023/05/16 01:26:51;;;;;;;10.65;4.65;;;9.70;99.90;;;;;;5116321;28;20043;-62
2023/05/16 01:29:18;;;;;;;11.15;4.68;;;9.70;99.90;;;;;;5078614;28;20044;-62
2023/05/16 01:31:46;;;;;;;10.60;4.15;;;9.70;99.90;;;;;;5094965;28;20077;-62
2023/05/16 01:34:12;;;;;;;11.13;4.22;;;9.60;99.90;;;;;;5096440;28;20506;-61
2023/05/16 01:36:39;;;;;;;10.57;4.47;;;9.60;99.90;;;;;;5096492;28;20501;-62
2023/05/16 01:39:06;;;;;;;11.15;4.75;;;9.60;99.90;;;;;;5096362;28;20040;-61
2023/05/16 01:41:34;;;;;;;7.60;4.18;;;9.60;99.90;;;;;;5078167;28;20051;-61
2023/05/16 01:44:02;;;;;;;9.25;4.78;;;9.60;99.90;;;;;;5111988;28;20043;-61
2023/05/16 01:46:29;;;;;;;9.65;4.03;;;9.60;99.90;;;;;;5097420;28;20043;-62
2023/05/16 01:48:55;;;;;;;9.70;4.25;;;9.50;99.90;;;;;;5082360;28;20051;-62
2023/05/16 01:51:22;;;;;;;12.32;4.90;;;9.50;99.90;;;;;;5096073;28;20093;-61
2023/05/16 01:53:50;;;;;;;8.73;4.65;;;9.50;99.90;;;;;;5096004;28;20040;-62
2023/05/16 01:56:17;;;;;;;10.60;4.90;;;9.50;99.90;;;;;;5095499;28;20135;-61
2023/05/16 01:58:45;;;;;;;13.57;4.85;;;9.50;99.90;;;;;;5077856;28;20487;-61
2023/05/16 02:01:12;;;;;;;12.52;4.18;;;9.50;99.90;;;;;;5095725;28;20491;-61
2023/05/16 02:03:39;;;;;;;12.65;4.57;;;9.40;99.90;;;;;;5077665;28;20052;-62
2023/05/16 02:06:06;;;;;;;11.15;4.22;;;9.50;99.90;;;;;;5095724;28;20050;-61
2023/05/16 02:08:33;;;;;;;8.60;4.45;;;9.40;99.90;;;;;;5095842;28;20036;-61
2023/05/16 02:10:59;;;;;;;9.63;4.55;;;9.40;99.90;;;;;;5077343;28;20543;-62
2023/05/16 02:13:26;;;;;;;11.15;4.53;;;9.40;99.90;;;;;;5096024;28;20036;-61
2023/05/16 02:15:53;;;;;;;7.53;3.92;;;9.40;99.90;;;;;;5061062;28;20038;-61
2023/05/16 02:18:22;;;;;;;8.80;4.30;;;9.30;99.90;;;;;;5076790;28;20098;-61
2023/05/16 02:20:49;;;;;;;12.95;4.78;;;9.20;99.90;;;;;;5077363;28;20048;-61
2023/05/16 02:23:15;;;;;;;12.43;4.72;;;9.20;99.90;;;;;;5095419;28;20041;-61
2023/05/16 02:25:42;;;;;;;8.93;4.30;;;9.10;99.90;;;;;;5095474;28;20078;-62
2023/05/16 02:28:09;;;;;;;8.88;4.68;;;9.10;99.90;;;;;;5095290;28;20123;-61
2023/05/16 02:30:36;;;;;;;11.95;4.55;;;9.00;99.90;;;;;;5095207;28;20032;-61
2023/05/16 02:33:03;;;;;;;11.18;4.32;;;8.90;99.90;;;;;;5095078;28;20475;-61
2023/05/16 02:35:30;;;;;;;8.40;4.32;;;8.80;99.90;;;;;;5095173;28;20435;-61
2023/05/16 02:37:56;;;;;;;9.68;4.30;;;8.80;99.90;;;;;;5077597;28;20042;-61
2023/05/16 02:40:23;;;;;;;10.65;4.10;;;8.70;99.90;;;;;;5076859;28;20403;-61
2023/05/16 02:42:50;;;;;;;12.07;4.40;;;8.70;99.90;;;;;;5077171;28;20109;-61
2023/05/16 02:45:16;;;;;;;10.55;4.53;;;8.60;99.90;;;;;;5095295;28;20044;-61
2023/05/16 02:47:43;;;;;;;11.95;4.32;;;8.60;99.90;;;;;;5077237;28;20152;-60
2023/05/16 02:50:10;;;;;;;10.88;4.32;;;8.50;99.90;;;;;;5095153;28;20044;-62
2023/05/16 02:52:37;;;;;;;9.68;4.70;;;8.50;99.90;;;;;;5094937;28;20036;-62
2023/05/16 02:55:04;;;;;;;8.00;4.07;;;8.50;99.90;;;;;;5076611;28;20044;-62
2023/05/16 02:57:47;;;;;;;11.02;4.32;;;8.50;99.90;;;;;;5095012;28;20040;-62
2023/05/16 03:00:14;;;;;;;11.57;4.50;;;8.50;99.90;;;;;;5094880;28;20500;-62
2023/05/16 03:02:44;;;;;;;10.05;4.07;;;8.40;99.90;;;;;;5094891;28;20402;-61
2023/05/16 03:05:11;;;;;;;10.18;3.95;;;8.40;99.90;;;;;;5076421;28;20491;-62
2023/05/16 03:07:38;;;;;;;10.73;4.03;;;8.40;99.90;;;;;;5085401;28;20051;-62
2023/05/16 03:10:05;;;;;;;12.13;4.40;;;8.30;99.90;;;;;;5113775;28;20411;-61
2023/05/16 03:12:32;;;;;;;9.05;4.03;;;8.30;99.90;;;;;;5114188;28;20402;-62
2023/05/16 03:14:59;;;;;;;9.73;4.38;;;8.30;99.90;;;;;;5111420;28;20044;-62
2023/05/16 03:17:26;;;;;;;9.98;4.22;;;8.20;99.90;;;;;;5093225;28;20398;-62
2023/05/16 03:19:53;;;;;;;9.40;4.35;;;8.20;99.90;;;;;;5094319;28;20471;-62
2023/05/16 03:22:19;;;;;;;9.25;3.88;;;8.10;99.90;;;;;;5076132;28;20498;-61
2023/05/16 03:24:46;;;;;;;10.75;4.00;;;8.10;99.90;;;;;;5094353;28;20044;-62
2023/05/16 03:27:13;;;;;;;9.10;4.38;;;8.00;99.90;;;;;;5091844;28;20055;-62
2023/05/16 03:29:41;;;;;;;7.13;3.63;;;8.00;99.90;;;;;;5093944;28;20498;-62
2023/05/16 03:32:09;;;;;;;6.15;3.92;;;8.00;99.90;;;;;;5094401;28;20487;-61
2023/05/16 03:34:37;;;;;;;8.35;3.78;;;8.00;99.90;;;;;;5094328;28;20475;-61
2023/05/16 03:37:03;;;;;;;10.15;3.75;;;7.90;99.90;;;;;;5100468;28;20356;-61
2023/05/16 03:39:30;;;;;;;7.43;3.72;;;7.90;99.90;;;;;;5113958;28;20037;-62
2023/05/16 03:41:57;;;;;;;8.30;3.65;;;7.90;99.90;;;;;;5095540;28;20044;-62
2023/05/16 03:44:24;;;;;;;7.03;3.25;;;7.90;99.90;;;;;;5113609;28;20372;-61
2023/05/16 03:46:51;;;;;;;7.78;4.40;;;7.90;99.90;;;;;;5113919;28;20199;-61
2023/05/16 03:49:19;;;;;;;7.60;3.67;;;7.90;99.90;;;;;;5088413;28;20411;-62
2023/05/16 03:51:46;;;;;;;12.13;4.40;;;7.90;99.90;;;;;;5087606;28;20112;-62
2023/05/16 03:54:14;;;;;;;8.27;3.92;;;7.80;99.90;;;;;;5075838;28;20036;-62
2023/05/16 03:56:40;;;;;;;6.20;3.60;;;7.80;99.90;;;;;;5087570;28;20028;-61
2023/05/16 03:59:07;;;;;;;8.55;3.60;;;7.80;99.90;;;;;;5087747;28;20119;-62
2023/05/16 04:01:34;;;;;;;10.98;3.58;;;7.80;99.90;;;;;;5087217;28;20056;-62
2023/05/16 04:04:00;;;;;;;12.07;3.47;;;7.80;99.90;;;;;;5087110;28;20509;-62
2023/05/16 04:06:28;;;;;;;7.78;4.00;;;7.80;99.90;;;;;;5087044;28;20040;-62
2023/05/16 04:08:54;;;;;;;11.27;4.07;;;7.80;99.90;;;;;;5113411;28;20074;-61
2023/05/16 04:11:21;;;;;;;7.68;4.00;;;7.80;99.90;;;;;;5111887;28;20043;-62
2023/05/16 04:13:48;;;;;;;11.45;4.35;;;7.80;99.90;;;;;;5113579;28;20040;-62
2023/05/16 04:16:15;;;;;;;9.82;4.20;;;7.70;99.90;;;;;;5113290;28;20075;-63
2023/05/16 04:18:41;;;;;;;10.65;4.05;;;7.70;99.90;;;;;;5094997;28;20032;-63
2023/05/16 04:21:10;;;;;;;12.15;3.83;;;7.70;99.90;;;;;;5097546;28;20040;-63
2023/05/16 04:23:37;;;;;;;8.27;3.88;;;7.70;99.90;;;;;;5097918;28;20147;-63
2023/05/16 04:26:03;;;;;;;7.35;4.00;;;7.60;99.90;;;;;;5097755;28;20157;-63
2023/05/16 04:28:31;;;;;;;6.78;3.42;;;7.60;99.90;;;;;;5097758;28;20403;-63
2023/05/16 04:30:58;;;;;;;11.35;3.67;;;7.60;99.90;;;;;;5097685;28;20044;-63
2023/05/16 04:33:24;;;;;;;10.73;4.05;;;7.60;99.90;;;;;;5097619;28;20040;-63
2023/05/16 04:35:52;;;;;;;6.45;3.47;;;7.60;99.90;;;;;;5097807;28;20047;-63
2023/05/16 04:38:19;;;;;;;10.20;3.70;;;7.60;99.90;;;;;;5079595;28;20131;-60
2023/05/16 04:40:45;;;;;;;8.65;3.58;;;7.60;99.90;;;;;;5097604;28;20040;-62
2023/05/16 04:43:12;;;;;;;7.32;3.85;;;7.60;99.90;;;;;;5097660;28;20101;-62
2023/05/16 04:45:40;;;;;;;13.02;4.13;;;7.70;99.90;;;;;;5097251;28;20067;-62
2023/05/16 04:48:07;;;;;;;7.07;3.58;;;7.70;99.90;;;;;;5097339;28;20452;-62
2023/05/16 04:50:34;;;;;;;7.95;3.63;;;7.90;99.90;;;;;;5097333;28;20044;-62
2023/05/16 04:53:01;;;;;;;9.15;3.80;;;7.90;99.90;;;;;;5097132;28;20119;-63
2023/05/16 04:55:28;;;;;;;8.00;3.65;;;8.10;99.90;;;;;;5097311;28;20047;-62
2023/05/16 04:57:55;;;;;;;10.77;3.75;;;8.10;99.90;;;;;;5097441;28;20143;-62
2023/05/16 05:00:22;;;;;;;6.82;3.70;;;8.20;99.90;;;;;;5097340;28;20040;-62
2023/05/16 05:02:49;;;;;;;10.65;3.83;;;8.30;99.90;;;;;;5097457;28;20048;-62
2023/05/16 05:05:15;;;;;;;10.30;3.90;;;8.40;99.90;;;;;;5097044;28;20101;-62
2023/05/16 05:07:42;;;;;;;8.30;3.53;;;8.50;99.90;;;;;;5097016;28;20044;-62
2023/05/16 05:10:09;;;;;;;8.88;3.53;;;8.50;99.90;;;;;;5096831;28;20097;-62
2023/05/16 05:12:36;;;;;;;7.25;3.65;;;8.60;99.90;;;;;;5078908;28;20047;-62
2023/05/16 05:15:03;;;;;;;4.55;3.13;;;8.60;99.90;;;;;;5115080;28;20085;-62
2023/05/16 05:17:29;;;;;;;7.30;3.42;;;8.70;99.90;;;;;;5097168;28;20083;-63
2023/05/16 05:19:56;;;;;;;8.57;3.85;;;8.80;99.90;;;;;;5096452;28;20173;-62
2023/05/16 05:22:23;;;;;;;7.35;3.38;;;8.80;99.90;;;;;;5096982;28;20039;-62
2023/05/16 05:24:50;;;;;;;8.82;3.70;;;9.00;99.90;;;;;;5096633;28;20048;-63
2023/05/16 05:27:17;;;;;;;6.70;3.33;;;9.10;99.90;;;;;;5096678;28;20044;-62
2023/05/16 05:29:44;;;;;;;8.60;3.67;;;9.20;99.90;;;;;;5096536;28;20048;-62
2023/05/16 05:32:11;;;;;;;6.90;3.38;;;9.30;99.90;;;;;;5095238;28;20072;-63
2023/05/16 05:34:38;;;;;;;9.48;3.40;;;9.40;99.90;;;;;;5096580;28;20044;-62
2023/05/16 05:37:04;;;;;;;8.07;3.42;;;9.50;99.90;;;;;;5061753;28;20036;-62
2023/05/16 05:39:31;;;;;;;8.10;3.30;;;9.60;99.90;;;;;;5096497;28;20044;-63
2023/05/16 05:41:58;;;;;;;7.88;3.22;;;9.80;99.90;;;;;;5096462;28;20139;-63
2023/05/16 05:44:25;;;;;;;8.82;3.20;;;9.90;99.90;;;;;;5096166;28;20119;-63
2023/05/16 05:46:51;;;;;;;8.07;3.33;;;10.00;99.90;;;;;;5096368;28;20126;-63
2023/05/16 05:49:18;;;;;;;7.80;3.47;;;10.00;99.90;;;;;;5078110;28;20058;-63
2023/05/16 05:51:45;;;;;;;11.10;3.47;;;10.00;99.90;;;;;;5077902;28;20044;-63
2023/05/16 05:54:12;;;;;;;7.20;3.22;;;10.00;99.90;;;;;;5096479;28;20490;-63
2023/05/16 05:56:39;;;;;;;11.23;3.28;;;10.00;99.90;;;;;;5096127;28;20039;-63
2023/05/16 05:59:05;;;;;;;10.25;3.25;;;10.00;99.90;;;;;;5095956;28;20040;-63
2023/05/16 06:01:32;;;;;;;8.70;3.20;;;10.00;99.90;;;;;;5078201;28;20127;-63
2023/05/16 06:03:59;;;;;;;9.48;3.05;;;9.90;99.90;;;;;;5095866;28;20044;-63
2023/05/16 06:06:28;;;;;;;10.38;3.00;;;9.90;99.90;;;;;;5095949;28;20040;-63
2023/05/16 06:08:54;;;;;;;7.85;2.80;;;9.80;99.90;;;;;;5077830;28;20062;-63
2023/05/16 06:11:21;;;;;;;9.93;2.78;;;9.80;99.90;;;;;;5095661;28;20471;-63
2023/05/16 06:13:48;;;;;;;10.68;2.78;;;9.70;99.90;;;;;;5095850;28;20051;-62
2023/05/16 06:16:17;;;;;;;13.63;3.13;;;9.70;99.90;;;;;;5073699;28;20040;-63
2023/05/16 06:18:44;;;;;;;14.60;3.22;;;9.70;99.90;;;;;;5074834;28;20040;-63
2023/05/16 06:21:11;;;;;;;6.50;2.88;;;9.70;99.90;;;;;;5089594;28;20483;-62
2023/05/16 06:23:37;;;;;;;11.98;3.20;;;9.70;99.90;;;;;;5092306;28;20043;-63
2023/05/16 06:26:04;;;;;;;10.65;3.45;;;9.70;99.90;;;;;;5091931;28;20040;-63
2023/05/16 06:28:31;;;;;;;13.63;3.17;;;9.70;99.90;;;;;;5087457;28;20410;-63
2023/05/16 06:30:58;;;;;;;13.07;3.20;;;9.70;99.90;;;;;;5071682;28;20036;-63
2023/05/16 06:33:25;;;;;;;14.85;3.53;;;9.70;99.90;;;;;;5093883;28;20135;-63
2023/05/16 06:35:52;;;;;;;9.25;3.50;;;9.70;99.90;;;;;;5093527;28;20492;-63
2023/05/16 06:38:18;;;;;;;11.85;2.97;;;9.70;99.90;;;;;;5094539;28;20039;-62
2023/05/16 06:40:45;;;;;;;12.10;3.35;;;9.80;99.90;;;;;;5097628;28;20530;-63
2023/05/16 06:43:12;;;;;;;12.68;3.35;;;9.90;99.90;;;;;;5114533;28;20414;-62
2023/05/16 06:45:39;;;;;;;13.35;3.22;;;9.90;99.90;;;;;;5114624;28;20036;-62
2023/05/16 06:48:06;;;;;;;7.80;2.70;;;10.00;99.90;;;;;;5104590;28;20044;-63
2023/05/16 06:50:34;;;;;;;11.25;3.00;;;10.10;99.90;;;;;;5095081;28;20449;-63
2023/05/16 06:53:01;;;;;;;9.30;3.30;;;10.10;99.90;;;;;;5095050;28;20078;-62
2023/05/16 06:55:27;;;;;;;8.82;2.47;;;10.20;99.90;;;;;;5094924;28;20127;-62
2023/05/16 06:57:54;;;;;;;13.80;2.80;;;10.20;99.90;;;;;;5093437;28;20542;-63
2023/05/16 07:00:21;;;;;;;9.65;2.47;;;10.20;99.90;;;;;;5094067;28;20365;-63
2023/05/16 07:02:49;;;;;;;10.23;2.55;;;10.30;99.90;;;;;;5095020;28;20518;-62
2023/05/16 07:05:16;;;;;;;7.80;2.40;;;10.30;99.90;;;;;;5094613;28;20043;-63
2023/05/16 07:07:42;;;;;;;10.60;2.70;;;10.40;99.90;;;;;;5075761;28;20494;-63
2023/05/16 07:10:09;;;;;;;8.60;2.58;;;10.40;99.90;;;;;;5094684;28;20043;-63
2023/05/16 07:12:39;;;;;;;11.38;2.60;;;10.40;99.90;;;;;;5094771;28;20036;-62
2023/05/16 07:15:06;;;;;;;9.82;2.80;;;10.50;99.90;;;;;;5093357;28;20025;-62
2023/05/16 07:17:32;;;;;;;13.10;2.72;;;10.50;99.90;;;;;;5094505;28;20040;-63
2023/05/16 07:19:59;;;;;;;10.63;2.72;;;10.60;99.90;;;;;;5093597;28;20040;-63
2023/05/16 07:22:30;;;;;;;13.82;3.00;;;10.70;99.90;;;;;;5092674;28;20054;-62
2023/05/16 07:24:59;;;;;;;14.88;2.90;;;10.80;99.90;;;;;;5093989;28;20101;-63
2023/05/16 07:27:27;;;;;;;11.32;2.80;;;10.80;99.90;;;;;;5093935;28;20044;-61
2023/05/16 07:29:53;;;;;;;11.05;2.97;;;10.90;99.90;;;;;;5094087;28;20907;-62
2023/05/16 07:32:20;;;;;;;14.93;3.25;;;10.90;99.90;;;;;;5075410;28;20135;-61
2023/05/16 07:34:47;;;;;;;13.23;3.00;;;10.90;99.90;;;;;;5093902;28;20054;-62
2023/05/16 07:37:15;;;;;;;13.35;2.80;;;11.00;99.90;;;;;;5103091;28;20044;-62
2023/05/16 07:39:41;;;;;;;9.38;2.78;;;11.00;99.90;;;;;;5113035;28;20040;-62
2023/05/16 07:42:08;;;;;;;12.18;2.80;;;11.10;99.90;;;;;;5091723;28;20138;-62
2023/05/16 07:44:35;;;;;;;10.45;2.45;;;11.20;99.90;;;;;;5113420;28;20080;-62
2023/05/16 07:47:02;;;;;;;15.65;2.65;;;11.20;99.90;;;;;;5113460;28;20482;-61
2023/05/16 07:49:29;;;;;;;8.50;2.30;;;11.20;99.90;;;;;;5113075;28;20470;-62
2023/05/16 07:51:56;;;;;;;11.20;2.38;;;11.20;99.90;;;;;;5092033;28;20134;-62
2023/05/16 07:54:22;;;;;;;14.25;2.88;;;11.30;99.90;;;;;;5074893;28;20093;-62
2023/05/16 07:56:49;;;;;;;11.43;2.28;;;11.40;99.90;;;;;;5093746;28;20075;-62
2023/05/16 07:59:16;;;;;;;13.80;2.40;;;11.50;99.90;;;;;;5093523;28;20044;-62
2023/05/16 08:01:43;;;;;;;10.05;2.30;;;11.50;99.90;;;;;;5093400;28;20035;-62
2023/05/16 08:04:10;;;;;;;15.55;2.75;;;11.50;99.90;;;;;;5093578;28;20395;-62
2023/05/16 08:06:37;;;;;;;10.60;2.50;;;11.50;99.90;;;;;;5093684;28;20048;-62
2023/05/16 08:09:03;;;;;;;11.02;1.83;;;11.60;99.90;;;;;;5093397;28;20043;-62
2023/05/16 08:11:30;;;;;;;7.55;2.42;;;11.70;99.90;;;;;;5093456;28;20128;-62
2023/05/16 08:13:57;;;;;;;10.75;2.65;;;11.80;99.90;;;;;;5075080;28;20040;-62
2023/05/16 08:16:24;;;;;;;7.18;1.90;;;11.80;99.90;;;;;;5075493;28;20064;-62
2023/05/16 08:18:50;;;;;;;10.68;2.90;;;11.80;99.90;;;;;;5093115;28;20463;-62
2023/05/16 08:21:17;;;;;;;13.90;2.83;;;11.90;99.90;;;;;;5093089;28;20403;-62
2023/05/16 08:23:44;;;;;;;9.27;2.97;;;12.00;99.90;;;;;;5093125;28;20506;-62
2023/05/16 08:26:11;;;;;;;11.00;2.60;;;12.00;99.90;;;;;;5093368;28;20415;-61
2023/05/16 08:28:38;;;;;;;8.20;2.10;;;12.10;99.90;;;;;;5092930;28;20044;-66
2023/05/16 08:31:04;;;;;;;10.02;2.08;;;12.20;99.90;;;;;;5092371;28;20036;-61
2023/05/16 08:33:31;;;;;;;9.48;1.95;;;12.20;99.90;;;;;;5092309;28;20032;-62
2023/05/16 08:35:59;;;;;;;8.15;2.42;;;12.20;99.90;;;;;;5093310;28;20063;-62
2023/05/16 08:38:26;;;;;;;11.43;2.30;;;12.30;99.90;;;;;;5092829;28;20130;-61
2023/05/16 08:40:53;;;;;;;13.27;3.75;;;12.30;99.90;;;;;;5092989;28;20044;-61
2023/05/16 08:43:20;;;;;;;9.70;2.50;;;12.30;99.90;;;;;;5092226;28;20040;-62
2023/05/16 08:45:46;;;;;;;6.53;2.08;;;12.40;99.90;;;;;;5100480;28;20044;-61
2023/05/16 08:48:13;;;;;;;9.02;2.10;;;12.40;99.90;;;;;;5112609;28;20044;-62
2023/05/16 08:50:41;;;;;;;7.88;1.88;;;12.40;99.90;;;;;;5112378;28;20048;-62
2023/05/16 08:53:08;;;;;;;8.82;2.05;;;12.50;99.90;;;;;;5099973;28;20040;-62
2023/05/16 08:55:35;;;;;;;11.57;2.30;;;12.60;99.90;;;;;;5092903;28;20071;-61
2023/05/16 08:58:02;;;;;;;7.47;1.77;;;12.60;99.80;;;;;;5092935;28;20051;-62
2023/05/16 09:00:30;;;;;;;9.68;2.30;;;12.60;99.90;;;;;;5092735;28;20036;-62
2023/05/16 09:02:57;;;;;;;9.32;1.90;;;12.60;99.90;;;;;;5092657;28;20644;-63
2023/05/16 09:05:24;;;;;;;10.00;1.88;;;12.70;99.70;;;;;;5093461;28;20075;-62
2023/05/16 09:07:51;;;;;;;11.15;1.90;;;12.70;99.60;;;;;;5079194;28;20131;-61
2023/05/16 09:10:18;;;;;;;11.60;2.10;;;12.70;99.10;;;;;;5096611;28;20040;-62
2023/05/16 09:12:44;;;;;;;8.68;1.92;;;12.80;99.70;;;;;;5096425;28;20114;-62
2023/05/16 09:15:11;;;;;;;8.80;1.77;;;12.90;99.30;;;;;;5096444;28;20044;-62
2023/05/16 09:17:38;;;;;;;8.25;2.00;;;13.00;99.30;;;;;;5095447;28;20490;-62
2023/05/16 09:20:08;;;;;;;11.00;2.15;;;13.10;99.10;;;;;;5095729;28;20048;-62
2023/05/16 09:22:34;;;;;;;7.22;1.90;;;13.10;99.20;;;;;;5096754;28;20066;-62
2023/05/16 09:25:01;;;;;;;7.47;2.25;;;13.10;99.20;;;;;;5096050;28;20392;-62
2023/05/16 09:27:28;;;;;;;8.40;2.30;;;13.20;98.90;;;;;;5078308;28;20044;-62
2023/05/16 09:29:55;;;;;;;11.77;2.05;;;13.30;98.40;;;;;;5096172;28;20505;-62
2023/05/16 09:32:21;;;;;;;7.28;1.80;;;13.30;98.30;;;;;;5096424;28;20055;-62
2023/05/16 09:34:50;;;;;;;10.57;2.30;;;13.40;98.40;;;;;;5089449;28;20032;-61
2023/05/16 09:37:16;;;;;;;7.78;1.85;;;13.50;98.30;;;;;;5089775;28;20093;-62
2023/05/16 09:39:43;;;;;;;7.80;1.98;;;13.50;97.10;;;;;;5095984;28;20048;-62
2023/05/16 09:42:11;;;;;;;8.68;1.95;;;13.70;97.50;;;;;;5089625;28;20512;-61
2023/05/16 09:44:38;;;;;;;7.85;1.77;;;13.70;97.40;;;;;;5088377;28;20123;-62
2023/05/16 09:47:04;;;;;;;10.57;2.13;;;13.80;97.50;;;;;;5089316;28;20036;-62
2023/05/16 09:49:31;;;;;;;10.68;2.20;;;13.80;97.00;;;;;;5089361;28;20095;-61
2023/05/16 09:51:58;;;;;;;9.63;2.20;;;13.80;97.20;;;;;;5115431;28;20482;-61
2023/05/16 09:54:25;;;;;;;7.22;2.13;;;13.90;96.70;;;;;;5108801;28;20032;-61
2023/05/16 09:56:52;;;;;;;10.75;2.00;;;14.00;97.10;;;;;;5108502;28;20478;-61
2023/05/16 09:59:18;;;;;;;11.90;2.33;;;14.00;96.50;;;;;;5115196;28;20039;-61
2023/05/16 10:01:45;;;;;;;7.82;1.60;;;14.00;96.40;;;;;;5115006;28;20035;-62
2023/05/16 10:04:14;;;;;;;7.55;1.92;;;14.10;96.60;;;;;;5114973;28;20040;-62
2023/05/16 10:06:41;;;;;;;9.13;1.80;;;14.30;96.20;;;;;;5114907;28;20054;-62
2023/05/16 10:09:08;;;;;;;6.40;1.70;;;14.30;96.70;;;;;;5113920;28;20043;-62
2023/05/16 10:11:35;;;;;;;7.47;2.50;;;14.30;96.40;;;;;;5113902;28;20036;-62
2023/05/16 10:14:02;;;;;;;9.18;2.20;;;14.30;95.80;;;;;;5114958;28;20044;-62
2023/05/16 10:16:31;;;;;;;8.70;1.83;;;14.30;95.80;;;;;;5114693;28;20118;-62
2023/05/16 10:18:58;;;;;;;6.13;1.55;;;14.40;95.70;;;;;;5098142;28;20046;-62
2023/05/16 10:21:25;;;;;;;8.05;1.98;;;14.40;95.30;;;;;;5094985;28;20077;-62
2023/05/16 10:23:52;;;;;;;7.85;2.08;;;14.40;95.40;;;;;;5095247;28;20131;-62
2023/05/16 10:26:20;;;;;;;8.65;1.90;;;14.50;95.20;;;;;;5095146;28;20039;-62
2023/05/16 10:28:47;;;;;;;8.75;1.65;;;14.70;95.30;;;;;;5095117;28;20040;-62
2023/05/16 10:31:14;;;;;;;6.05;1.50;;;14.90;94.90;;;;;;5094974;28;20507;-62
2023/05/16 10:33:41;;;;;;;6.68;1.55;;;15.00;95.20;;;;;;5094875;28;20046;-62
2023/05/16 10:36:07;;;;;;;6.65;1.48;;;15.10;93.90;;;;;;5094993;28;20044;-62
2023/05/16 10:38:34;;;;;;;8.52;1.63;;;15.00;93.70;;;;;;5094664;28;20119;-62
2023/05/16 10:41:01;;;;;;;8.30;1.63;;;14.90;93.70;;;;;;5076850;28;20051;-62
2023/05/16 10:43:29;;;;;;;7.95;1.50;;;14.80;93.00;;;;;;5094833;28;20039;-63
2023/05/16 10:45:56;;;;;;;7.30;2.20;;;14.70;93.70;;;;;;5076639;28;20036;-62
2023/05/16 10:48:22;;;;;;;5.07;1.38;;;14.80;93.70;;;;;;5094513;28;20040;-62
2023/05/16 10:50:50;;;;;;;6.18;1.63;;;14.90;94.30;;;;;;5094900;28;20044;-62
2023/05/16 10:53:16;;;;;;;7.05;1.63;;;15.00;93.70;;;;;;5094655;28;20483;-62
2023/05/16 10:55:43;;;;;;;6.38;1.42;;;15.10;93.70;;;;;;5076486;28;20507;-62
2023/05/16 10:58:10;;;;;;;7.53;1.90;;;15.20;94.30;;;;;;5094569;28;20392;-62
2023/05/16 11:00:37;;;;;;;6.03;2.00;;;15.40;94.30;;;;;;5094332;28;20055;-62
2023/05/16 11:03:04;;;;;;;6.90;1.75;;;15.40;94.40;;;;;;5094325;28;20036;-62
2023/05/16 11:05:31;;;;;;;7.28;1.58;;;15.40;93.50;;;;;;5094326;28;20032;-62
2023/05/16 11:07:58;;;;;;;5.93;1.73;;;15.40;93.80;;;;;;5094443;28;20036;-62
2023/05/16 11:10:24;;;;;;;9.52;1.83;;;15.30;92.80;;;;;;5094319;28;20380;-63
2023/05/16 11:12:53;;;;;;;6.32;1.70;;;15.40;93.00;;;;;;5094453;28;20384;-62
2023/05/16 11:15:20;;;;;;;9.15;2.15;;;15.40;93.50;;;;;;5112767;28;20042;-62
2023/05/16 11:17:47;;;;;;;5.68;1.55;;;15.50;92.90;;;;;;5107078;28;20048;-62
2023/05/16 11:20:13;;;;;;;6.97;1.73;;;15.50;92.60;;;;;;5075733;28;20051;-62
2023/05/16 11:22:41;;;;;;;6.22;1.40;;;15.50;92.60;;;;;;5094240;28;20102;-62
2023/05/16 11:25:07;;;;;;;8.23;1.75;;;15.40;92.10;;;;;;5093927;28;20044;-62
2023/05/16 11:27:35;;;;;;;7.20;1.50;;;15.30;92.00;;;;;;5094052;28;20040;-62
2023/05/16 11:30:02;;;;;;;6.38;1.30;;;15.30;92.10;;;;;;5092827;28;20059;-62
2023/05/16 11:32:30;;;;;;;7.78;1.85;;;15.30;92.00;;;;;;5094075;28;20044;-63
2023/05/16 11:34:57;;;;;;;5.50;1.50;;;15.30;91.90;;;;;;5093810;28;20059;-62
2023/05/16 11:37:23;;;;;;;6.45;1.58;;;15.40;92.10;;;;;;5075927;28;20039;-62
2023/05/16 11:39:50;;;;;;;7.85;1.42;;;15.60;92.20;;;;;;5093695;28;20048;-62
2023/05/16 11:42:17;;;;;;;9.13;1.45;;;15.60;92.00;;;;;;5093741;28;20101;-62
2023/05/16 11:44:44;;;;;;;8.18;2.00;;;15.60;92.50;;;;;;5093542;28;20048;-63
2023/05/16 11:47:11;;;;;;;9.88;1.70;;;15.60;91.70;;;;;;5094076;28;20040;-62
2023/05/16 11:49:38;;;;;;;7.70;1.77;;;15.60;91.50;;;;;;5091780;28;20071;-62
2023/05/16 11:52:06;;;;;;;5.43;1.50;;;15.60;90.90;;;;;;5092502;28;20038;-62
2023/05/16 11:54:33;;;;;;;7.63;1.92;;;15.60;90.80;;;;;;5076266;28;20408;-62
2023/05/16 11:57:00;;;;;;;6.82;1.42;;;15.60;90.90;;;;;;5093960;28;20449;-63
2023/05/16 11:59:27;;;;;;;7.50;1.67;;;15.70;90.60;;;;;;5092819;28;20628;-62
2023/05/16 12:01:54;;;;;;;5.90;1.60;;;15.70;90.60;;;;;;5093648;28;20548;-62
2023/05/16 12:04:22;;;;;;;5.90;1.17;;;15.90;91.20;;;;;;5092698;28;20556;-63
2023/05/16 12:06:49;;;;;;;9.10;1.70;;;16.00;91.20;;;;;;5075779;28;20051;-63
2023/05/16 12:09:16;;;;;;;8.35;1.70;;;16.10;91.30;;;;;;5093929;28;20091;-64
2023/05/16 12:11:44;;;;;;;8.27;1.58;;;16.20;90.80;;;;;;5093541;28;20487;-64
2023/05/16 12:14:11;;;;;;;7.80;1.55;;;16.20;90.70;;;;;;5093841;28;20115;-64
2023/05/16 12:16:37;;;;;;;5.38;1.75;;;16.20;90.50;;;;;;5092820;28;20047;-61
2023/05/16 12:19:04;;;;;;;6.97;1.50;;;16.10;89.30;;;;;;5075682;28;20471;-64
2023/05/16 12:21:31;;;;;;;5.72;1.50;;;16.10;90.20;;;;;;5092289;28;20504;-63
2023/05/16 12:23:58;;;;;;;4.35;1.27;;;16.10;89.60;;;;;;5094059;28;20122;-64
2023/05/16 12:26:25;;;;;;;5.40;1.48;;;16.20;90.50;;;;;;5093608;28;20040;-64
2023/05/16 12:28:52;;;;;;;6.78;1.70;;;16.20;90.40;;;;;;5075281;28;20048;-63
2023/05/16 12:31:19;;;;;;;5.32;1.48;;;16.30;89.30;;;;;;5093498;28;20134;-63
2023/05/16 12:33:57;;;;;;;4.30;1.75;;;16.30;89.60;;;;;;5092525;28;20123;-63
2023/05/16 12:36:25;;;;;;;5.47;1.58;;;16.30;88.90;;;;;;5093462;28;20055;-63
2023/05/16 12:38:52;;;;;;;7.95;1.60;;;16.20;90.00;;;;;;5097459;28;20482;-64
2023/05/16 12:41:19;;;;;;;5.75;1.70;;;16.30;89.60;;;;;;5112947;28;20055;-64
2023/05/16 12:43:45;;;;;;;9.27;1.80;;;16.30;87.20;;;;;;5097383;28;20123;-63
2023/05/16 12:46:12;;;;;;;6.72;1.58;;;16.30;87.30;;;;;;5078758;28;20044;-64